Time,TemperatureF,DewpointF,PressureIn,WindDirection,WindDirectionDegrees,WindSpeedMPH,WindSpeedGustMPH,Humidity,HourlyPrecipIn,Conditions,Clouds,dailyrainin,SoftwareType,DateUTC
2013-03-06 00:01:00,67.0,64.0,30.15,WSW,255,2.0,5.0,89,0.15,,,0.15,,2013-03-06 10:01:00,
2013-03-06 00:11:00,67.0,64.0,30.15,WSW,255,2.0,5.0,89,0.15,,,0.15,,2013-03-06 10:11:00,
2013-03-06 00:21:00,67.0,64.0,30.15,WSW,253,1.0,5.0,90,0.21,,,0.21,,2013-03-06 10:21:00,
2013-03-06 00:31:00,66.0,63.0,30.14,WSW,248,2.0,6.0,91,0.21,,,0.21,,2013-03-06 10:31:00,
2013-03-06 00:41:00,66.0,63.0,30.14,WSW,248,2.0,6.0,91,0.21,,,0.21,,2013-03-06 10:41:00,
2013-03-06 00:52:00,66.0,64.0,30.14,West,263,2.0,4.0,92,0.17,,,0.21,,2013-03-06 10:52:00,
2013-03-06 01:01:00,66.0,64.0,30.13,WSW,243,1.0,5.0,92,0.04,,,0.21,,2013-03-06 11:01:00,
2013-03-06 01:11:00,66.0,64.0,30.13,WSW,243,1.0,5.0,92,0.04,,,0.21,,2013-03-06 11:11:00,
2013-03-06 01:22:00,65.0,63.0,30.13,WNW,296,3.0,7.0,92,0.00,,,0.21,,2013-03-06 11:22:00,
2013-03-06 01:31:00,65.0,63.0,30.12,SW,217,2.0,8.0,93,0.00,,,0.21,,2013-03-06 11:31:00,
2013-03-06 01:42:00,65.0,63.0,30.12,SW,217,2.0,8.0,93,0.00,,,0.21,,2013-03-06 11:42:00,
2013-03-06 01:52:00,65.0,63.0,30.11,West,281,2.0,4.0,93,0.00,,,0.21,,2013-03-06 11:52:00,
2013-03-06 02:01:00,65.0,63.0,30.11,WSW,256,2.0,4.0,93,0.00,,,0.21,,2013-03-06 12:01:00,
2013-03-06 02:11:00,65.0,63.0,30.11,WSW,256,2.0,4.0,93,0.00,,,0.21,,2013-03-06 12:11:00,
2013-03-06 02:21:00,64.0,62.0,30.11,WSW,240,1.0,6.0,93,0.00,,,0.21,,2013-03-06 12:21:00,
2013-03-06 02:32:00,64.0,62.0,30.11,WSW,239,1.0,4.0,94,0.00,,,0.21,,2013-03-06 12:32:00,
2013-03-06 02:42:00,64.0,62.0,30.11,WSW,239,1.0,4.0,94,0.00,,,0.21,,2013-03-06 12:42:00,
2013-03-06 02:52:00,64.0,62.0,30.10,WSW,242,1.0,4.0,94,0.00,,,0.21,,2013-03-06 12:52:00,
2013-03-06 03:01:00,64.0,62.0,30.10,WSW,242,0.0,1.0,94,0.00,,,0.21,,2013-03-06 13:01:00,
2013-03-06 03:11:00,64.0,62.0,30.10,WSW,242,0.0,1.0,94,0.00,,,0.21,,2013-03-06 13:11:00,
2013-03-06 03:21:00,64.0,62.0,30.10,WNW,296,3.0,5.0,94,0.01,,,0.22,,2013-03-06 13:21:00,
2013-03-06 03:31:00,64.0,62.0,30.10,WNW,293,3.0,5.0,94,0.02,,,0.23,,2013-03-06 13:31:00,
2013-03-06 03:42:00,64.0,62.0,30.10,WNW,293,3.0,5.0,94,0.02,,,0.23,,2013-03-06 13:42:00,
2013-03-06 03:52:00,63.0,61.0,30.10,WSW,257,2.0,5.0,94,0.03,,,0.24,,2013-03-06 13:52:00,
2013-03-06 04:01:00,64.0,62.0,30.10,SW,229,2.0,4.0,94,0.02,,,0.24,,2013-03-06 14:01:00,
2013-03-06 04:11:00,64.0,62.0,30.10,SW,229,2.0,4.0,94,0.02,,,0.24,,2013-03-06 14:11:00,
2013-03-06 04:21:00,64.0,62.0,30.09,SW,233,2.0,4.0,94,0.02,,,0.24,,2013-03-06 14:21:00,
2013-03-06 04:31:00,63.0,61.0,30.09,WSW,238,1.0,3.0,94,0.01,,,0.24,,2013-03-06 14:31:00,
2013-03-06 04:41:00,63.0,61.0,30.09,WSW,238,1.0,3.0,94,0.01,,,0.24,,2013-03-06 14:41:00,
2013-03-06 04:52:00,64.0,63.0,30.09,WSW,256,1.0,4.0,95,0.00,,,0.24,,2013-03-06 14:52:00,
2013-03-06 05:01:00,63.0,62.0,30.09,WNW,297,2.0,5.0,95,0.00,,,0.24,,2013-03-06 15:01:00,
2013-03-06 05:11:00,63.0,62.0,30.09,WNW,297,2.0,5.0,95,0.00,,,0.24,,2013-03-06 15:11:00,
2013-03-06 05:21:00,63.0,61.0,30.09,West,269,2.0,6.0,94,0.00,,,0.24,,2013-03-06 15:21:00,
2013-03-06 05:32:00,63.0,62.0,30.09,West,267,2.0,5.0,95,0.00,,,0.24,,2013-03-06 15:32:00,
2013-03-06 05:41:00,63.0,62.0,30.09,West,267,2.0,5.0,95,0.00,,,0.24,,2013-03-06 15:41:00,
2013-03-06 05:52:00,64.0,63.0,30.09,WNW,289,3.0,5.0,95,0.00,,,0.24,,2013-03-06 15:52:00,
2013-03-06 06:01:00,64.0,63.0,30.11,WNW,302,4.0,6.0,95,0.00,,,0.24,,2013-03-06 16:01:00,
2013-03-06 06:11:00,64.0,63.0,30.11,WNW,302,4.0,6.0,95,0.00,,,0.24,,2013-03-06 16:11:00,
2013-03-06 06:21:00,64.0,62.0,30.11,West,272,2.0,4.0,94,0.00,,,0.24,,2013-03-06 16:21:00,
2013-03-06 06:32:00,64.0,62.0,30.12,West,268,1.0,4.0,94,0.00,,,0.24,,2013-03-06 16:32:00,
2013-03-06 06:41:00,64.0,62.0,30.12,West,268,1.0,4.0,94,0.00,,,0.24,,2013-03-06 16:41:00,
2013-03-06 06:52:00,64.0,62.0,30.12,WSW,256,2.0,4.0,94,0.00,,,0.24,,2013-03-06 16:52:00,
2013-03-06 07:01:00,64.0,63.0,30.13,West,259,2.0,5.0,95,0.00,,,0.24,,2013-03-06 17:01:00,
2013-03-06 07:11:00,64.0,63.0,30.13,West,259,2.0,5.0,95,0.00,,,0.24,,2013-03-06 17:11:00,
2013-03-06 07:21:00,64.0,62.0,30.14,WSW,254,1.0,4.0,94,0.00,,,0.24,,2013-03-06 17:21:00,
2013-03-06 07:31:00,64.0,63.0,30.14,WSW,242,2.0,5.0,95,0.00,,,0.24,,2013-03-06 17:31:00,
2013-03-06 07:41:00,64.0,63.0,30.14,WSW,242,2.0,5.0,95,0.00,,,0.24,,2013-03-06 17:41:00,
2013-03-06 07:52:00,65.0,64.0,30.14,WSW,245,2.0,4.0,95,0.00,,,0.24,,2013-03-06 17:52:00,
2013-03-06 08:01:00,65.0,64.0,30.15,West,266,1.0,4.0,95,0.00,,,0.24,,2013-03-06 18:01:00,
2013-03-06 08:28:00,66.0,65.0,30.15,West,264,2.0,4.0,95,0.00,,,0.24,,2013-03-06 18:28:00,
2013-03-06 08:41:00,67.0,65.0,30.15,West,276,3.0,6.0,94,0.01,,,0.25,,2013-03-06 18:41:00,
2013-03-06 08:52:00,67.0,66.0,30.14,West,276,1.0,4.0,95,0.01,,,0.25,,2013-03-06 18:52:00,
2013-03-06 09:02:00,69.0,68.0,30.15,SW,228,0.0,3.0,95,0.01,,,0.25,,2013-03-06 19:02:00,
2013-03-06 09:11:00,69.0,68.0,30.15,SW,228,0.0,3.0,95,0.01,,,0.25,,2013-03-06 19:11:00,
2013-03-06 09:21:00,69.0,67.0,30.15,SW,227,1.0,2.0,94,0.01,,,0.25,,2013-03-06 19:21:00,
2013-03-06 09:31:00,68.0,66.0,30.16,WNW,296,3.0,5.0,93,0.00,,,0.25,,2013-03-06 19:31:00,
2013-03-06 09:42:00,68.0,66.0,30.16,WNW,296,3.0,5.0,93,0.00,,,0.25,,2013-03-06 19:42:00,
2013-03-06 09:52:00,69.0,67.0,30.17,WNW,298,2.0,4.0,93,0.00,,,0.25,,2013-03-06 19:52:00,
2013-03-06 10:01:00,70.0,68.0,30.16,WNW,289,1.0,4.0,93,0.00,,,0.25,,2013-03-06 20:01:00,
2013-03-06 10:11:00,70.0,68.0,30.16,WNW,289,1.0,4.0,93,0.00,,,0.25,,2013-03-06 20:11:00,
2013-03-06 10:21:00,71.0,68.0,30.17,NNW,339,2.0,4.0,90,0.00,,,0.25,,2013-03-06 20:21:00,
2013-03-06 10:31:00,72.0,68.0,30.17,NE,54,2.0,4.0,88,0.00,,,0.25,,2013-03-06 20:31:00,
2013-03-06 10:41:00,72.0,68.0,30.17,NE,54,2.0,4.0,88,0.00,,,0.25,,2013-03-06 20:41:00,
2013-03-06 10:52:00,72.0,68.0,30.16,NNE,24,2.0,4.0,87,0.00,,,0.25,,2013-03-06 20:52:00,
2013-03-06 11:01:00,73.0,69.0,30.16,NNE,33,1.0,3.0,87,0.00,,,0.25,,2013-03-06 21:01:00,
2013-03-06 11:11:00,73.0,69.0,30.16,NNE,33,1.0,3.0,87,0.00,,,0.25,,2013-03-06 21:11:00,
2013-03-06 11:22:00,74.0,68.0,30.15,ENE,61,3.0,5.0,83,0.00,,,0.25,,2013-03-06 21:22:00,
2013-03-06 11:31:00,72.0,67.0,30.15,ESE,103,6.0,9.0,84,0.00,,,0.25,,2013-03-06 21:31:00,
2013-03-06 11:42:00,72.0,67.0,30.15,ESE,103,6.0,9.0,84,0.00,,,0.25,,2013-03-06 21:42:00,
2013-03-06 11:52:00,71.0,66.0,30.14,ESE,106,6.0,9.0,85,0.00,,,0.25,,2013-03-06 21:52:00,
2013-03-06 12:01:00,71.0,66.0,30.14,East,95,4.0,6.0,83,0.00,,,0.25,,2013-03-06 22:01:00,
2013-03-06 12:11:00,71.0,66.0,30.14,East,95,4.0,6.0,83,0.00,,,0.25,,2013-03-06 22:11:00,
2013-03-06 12:21:00,71.0,66.0,30.13,East,98,5.0,10.0,85,0.00,,,0.25,,2013-03-06 22:21:00,
2013-03-06 12:31:00,71.0,66.0,30.12,ESE,104,4.0,7.0,84,0.00,,,0.25,,2013-03-06 22:31:00,
2013-03-06 12:41:00,71.0,66.0,30.12,ESE,104,4.0,7.0,84,0.00,,,0.25,,2013-03-06 22:41:00,
2013-03-06 12:52:00,72.0,66.0,30.11,East,91,2.0,4.0,81,0.00,,,0.25,,2013-03-06 22:52:00,
2013-03-06 13:01:00,71.0,66.0,30.11,ENE,71,4.0,9.0,84,0.00,,,0.25,,2013-03-06 23:01:00,
2013-03-06 13:11:00,71.0,66.0,30.11,ENE,71,4.0,9.0,84,0.00,,,0.25,,2013-03-06 23:11:00,
2013-03-06 13:21:00,71.0,66.0,30.10,ENE,67,7.0,14.0,84,0.00,,,0.25,,2013-03-06 23:21:00,
2013-03-06 13:31:00,71.0,65.0,30.10,East,94,3.0,9.0,81,0.00,,,0.25,,2013-03-06 23:31:00,
2013-03-06 13:41:00,71.0,65.0,30.10,East,94,3.0,9.0,81,0.00,,,0.25,,2013-03-06 23:41:00,
2013-03-06 13:52:00,72.0,65.0,30.09,East,99,4.0,7.0,80,0.00,,,0.25,,2013-03-06 23:52:00,
2013-03-06 14:01:00,72.0,66.0,30.09,ESE,102,4.0,7.0,81,0.00,,,0.25,,2013-03-07 00:01:00,
2013-03-06 14:11:00,72.0,66.0,30.09,ESE,102,4.0,7.0,81,0.00,,,0.25,,2013-03-07 00:11:00,
2013-03-06 14:21:00,72.0,66.0,30.08,ESE,104,2.0,4.0,82,0.00,,,0.25,,2013-03-07 00:21:00,
2013-03-06 14:31:00,72.0,67.0,30.08,NE,48,6.0,8.0,83,0.00,,,0.25,,2013-03-07 00:31:00,
2013-03-06 14:41:00,72.0,67.0,30.08,NE,48,6.0,8.0,83,0.00,,,0.25,,2013-03-07 00:41:00,
2013-03-06 14:52:00,73.0,66.0,30.07,NE,44,6.0,8.0,79,0.00,,,0.25,,2013-03-07 00:52:00,
2013-03-06 15:01:00,72.0,65.0,30.06,ENE,76,3.0,7.0,79,0.00,,,0.25,,2013-03-07 01:01:00,
2013-03-06 15:11:00,72.0,65.0,30.06,ENE,76,3.0,7.0,79,0.00,,,0.25,,2013-03-07 01:11:00,
2013-03-06 15:21:00,71.0,65.0,30.06,East,85,2.0,5.0,80,0.00,,,0.25,,2013-03-07 01:21:00,
2013-03-06 15:31:00,72.0,66.0,30.06,NE,44,2.0,4.0,81,0.00,,,0.25,,2013-03-07 01:31:00,
2013-03-06 15:41:00,72.0,66.0,30.06,NE,44,2.0,4.0,81,0.00,,,0.25,,2013-03-07 01:41:00,
2013-03-06 15:52:00,74.0,67.0,30.06,NNE,28,4.0,7.0,80,0.00,,,0.25,,2013-03-07 01:52:00,
2013-03-06 16:01:00,74.0,67.0,30.06,NNE,27,3.0,7.0,79,0.00,,,0.25,,2013-03-07 02:01:00,
2013-03-06 16:11:00,74.0,67.0,30.06,NNE,27,3.0,7.0,79,0.00,,,0.25,,2013-03-07 02:11:00,
2013-03-06 16:21:00,74.0,67.0,30.06,NNE,15,2.0,5.0,80,0.00,,,0.25,,2013-03-07 02:21:00,
2013-03-06 16:31:00,74.0,67.0,30.06,NNE,30,3.0,4.0,79,0.00,,,0.25,,2013-03-07 02:31:00,
2013-03-06 16:41:00,74.0,67.0,30.06,NNE,30,3.0,4.0,79,0.00,,,0.25,,2013-03-07 02:41:00,
2013-03-06 16:52:00,74.0,67.0,30.06,NNE,30,3.0,4.0,79,0.00,,,0.25,,2013-03-07 02:52:00,
2013-03-06 17:01:00,74.0,67.0,30.07,NNE,29,3.0,6.0,79,0.00,,,0.25,,2013-03-07 03:01:00,
2013-03-06 17:11:00,74.0,67.0,30.07,NNE,29,3.0,6.0,79,0.00,,,0.25,,2013-03-07 03:11:00,
2013-03-06 17:21:00,73.0,66.0,30.07,NNE,31,3.0,5.0,80,0.00,,,0.25,,2013-03-07 03:21:00,
2013-03-06 17:31:00,73.0,67.0,30.08,ENE,58,6.0,9.0,81,0.00,,,0.25,,2013-03-07 03:31:00,
2013-03-06 17:41:00,73.0,67.0,30.08,ENE,58,6.0,9.0,81,0.00,,,0.25,,2013-03-07 03:41:00,
2013-03-06 17:52:00,72.0,66.0,30.08,ENE,71,6.0,9.0,82,0.00,,,0.25,,2013-03-07 03:52:00,
2013-03-06 18:01:00,72.0,66.0,30.08,ENE,71,5.0,8.0,82,0.00,,,0.25,,2013-03-07 04:01:00,
2013-03-06 18:11:00,72.0,66.0,30.08,ENE,71,5.0,8.0,82,0.00,,,0.25,,2013-03-07 04:11:00,
2013-03-06 18:21:00,72.0,66.0,30.08,East,98,4.0,9.0,82,0.00,,,0.25,,2013-03-07 04:21:00,
2013-03-06 18:31:00,72.0,66.0,30.09,NE,37,5.0,8.0,82,0.00,,,0.25,,2013-03-07 04:31:00,
2013-03-06 18:41:00,72.0,66.0,30.09,NE,37,5.0,8.0,82,0.00,,,0.25,,2013-03-07 04:41:00,
2013-03-06 18:52:00,72.0,66.0,30.09,NE,51,5.0,9.0,82,0.00,,,0.25,,2013-03-07 04:52:00,
2013-03-06 19:01:00,72.0,67.0,30.10,NE,56,4.0,7.0,83,0.00,,,0.25,,2013-03-07 05:01:00,
2013-03-06 19:12:00,72.0,67.0,30.10,NE,56,4.0,7.0,83,0.00,,,0.25,,2013-03-07 05:12:00,
2013-03-06 19:22:00,72.0,67.0,30.10,NE,53,5.0,7.0,83,0.00,,,0.25,,2013-03-07 05:22:00,
2013-03-06 19:31:00,72.0,66.0,30.10,ENE,76,4.0,7.0,82,0.00,,,0.25,,2013-03-07 05:31:00,
2013-03-06 19:41:00,72.0,66.0,30.10,ENE,76,4.0,7.0,82,0.00,,,0.25,,2013-03-07 05:41:00,
2013-03-06 19:52:00,72.0,67.0,30.11,ENE,64,4.0,7.0,83,0.00,,,0.25,,2013-03-07 05:52:00,
2013-03-06 20:01:00,72.0,67.0,30.11,ENE,58,4.0,8.0,83,0.00,,,0.25,,2013-03-07 06:01:00,
2013-03-06 20:11:00,72.0,67.0,30.11,ENE,58,4.0,8.0,83,0.00,,,0.25,,2013-03-07 06:11:00,
2013-03-06 20:21:00,72.0,67.0,30.11,ENE,59,3.0,7.0,83,0.00,,,0.25,,2013-03-07 06:21:00,
2013-03-06 20:31:00,72.0,67.0,30.11,NE,47,6.0,10.0,84,0.00,,,0.25,,2013-03-07 06:31:00,
2013-03-06 20:41:00,72.0,67.0,30.11,NE,47,6.0,10.0,84,0.00,,,0.25,,2013-03-07 06:41:00,
2013-03-06 20:52:00,71.0,66.0,30.12,NE,41,5.0,9.0,84,0.00,,,0.25,,2013-03-07 06:52:00,
2013-03-06 21:01:00,72.0,67.0,30.12,ENE,61,7.0,10.0,85,0.00,,,0.25,,2013-03-07 07:01:00,
2013-03-06 21:11:00,72.0,67.0,30.12,ENE,61,7.0,10.0,85,0.00,,,0.25,,2013-03-07 07:11:00,
2013-03-06 21:21:00,71.0,67.0,30.12,NE,53,8.0,12.0,87,0.00,,,0.25,,2013-03-07 07:21:00,
2013-03-06 21:31:00,71.0,67.0,30.13,ENE,57,6.0,12.0,87,0.00,,,0.25,,2013-03-07 07:31:00,
2013-03-06 21:41:00,71.0,67.0,30.13,ENE,57,6.0,12.0,87,0.00,,,0.25,,2013-03-07 07:41:00,
2013-03-06 21:52:00,71.0,67.0,30.13,ENE,60,6.0,11.0,87,0.00,,,0.25,,2013-03-07 07:52:00,
2013-03-06 22:01:00,71.0,67.0,30.13,ENE,71,5.0,11.0,86,0.00,,,0.25,,2013-03-07 08:01:00,
2013-03-06 22:11:00,71.0,67.0,30.13,ENE,71,5.0,11.0,86,0.00,,,0.25,,2013-03-07 08:11:00,
2013-03-06 22:22:00,71.0,67.0,30.14,NE,53,5.0,8.0,86,0.00,,,0.25,,2013-03-07 08:22:00,
2013-03-06 22:31:00,71.0,67.0,30.14,ENE,58,3.0,8.0,86,0.00,,,0.25,,2013-03-07 08:31:00,
2013-03-06 22:43:00,71.0,67.0,30.14,ENE,58,3.0,8.0,86,0.00,,,0.25,,2013-03-07 08:43:00,
2013-03-06 22:53:00,71.0,67.0,30.14,NE,52,5.0,9.0,87,0.00,,,0.25,,2013-03-07 08:53:00,
2013-03-06 23:01:00,71.0,67.0,30.14,ENE,64,4.0,7.0,87,0.00,,,0.25,,2013-03-07 09:01:00,
2013-03-06 23:11:00,71.0,67.0,30.14,ENE,64,4.0,7.0,87,0.00,,,0.25,,2013-03-07 09:11:00,
2013-03-06 23:22:00,71.0,67.0,30.14,East,81,2.0,9.0,88,0.00,,,0.25,,2013-03-07 09:22:00,
2013-03-06 23:31:00,70.0,66.0,30.13,SW,218,1.0,5.0,87,0.00,,,0.25,,2013-03-07 09:31:00,
2013-03-06 23:42:00,70.0,66.0,30.13,SW,218,1.0,5.0,87,0.00,,,0.25,,2013-03-07 09:42:00,
2013-03-06 23:52:00,68.0,64.0,30.13,ESE,120,0.0,5.0,88,0.00,,,0.25,,2013-03-07 09:52:00,